Airfield :
LOGIN :

Register | Disclaimer

   EN    FR    IT 

 










Legend :    VFR   Marginal VFR   IFR   Intensive IFR   Very Intensive IFR
Visi :
Ceiling :
>= 8 km
>= 3000ft
5 to 8 km
1000 to 3000 ft
1500m to 5 km
500 to 1000 ft
800 to 1500m
200 to 500 ft
< 800m
< 200 ft
Symbols :   Thunderstorms  Fog  Heavy snow  Heavy precipitations  Wind > 20 kt
SIGMETs :     Misc.  Thunderstorms  Icing  Turbulence  Mountain Waves  Volcanic Ashes






- Airport Elevation : 38 ft
- IATA code : TRE


EGPU - Tiree

CURRENT METAR :
  • 070050Z AUTO 21013KT 180V240 9999 NCD 08/06 Q1021

EXPIRED METARs :
  • 070020Z AUTO 21013KT 180V250 9999 FEW028/// 08/06 Q1021
  • 062350Z AUTO 22011KT 9999 FEW049/// 07/04 Q1021
  • 062320Z AUTO 23015KT 200V260 9999 FEW023/// SCT040/// 08/04 Q1020
  • 062250Z AUTO 22012KT 9999 NCD 07/05 Q1020
  • 062220Z AUTO 23014KT 9999 NCD 07/05 Q1020 RERA

Expired Forecast.



MET'MAP, your aeronautical weather chart ! - Copyright ORBIFLY December 2007 - Disclaimer

ORBIFLY MET'MAP TEAM :

Programming & Development : Alexandra Zaïnal
Concept & original design : Baudouin d'Aumeries
Assistance for programming : Marc-Olivier Méhu
Technical & hardware support : Manuel Goepfert

Contact : metmap@orbifly.com




SOURCES & CREDITS :

   NOAA